createdAt,value
2023-05-02T00:08:42.641Z,8.83
2023-05-02T00:18:42.803Z,8.97
2023-05-02T00:28:43.039Z,9.02
2023-05-02T00:38:43.224Z,9.04
2023-05-02T00:48:43.386Z,8.60
2023-05-02T00:58:43.450Z,8.51
2023-05-02T01:08:43.701Z,8.51
2023-05-02T01:18:43.901Z,8.50
2023-05-02T01:28:43.994Z,8.75
2023-05-02T01:38:44.449Z,8.88
2023-05-02T01:48:44.374Z,8.71
2023-05-02T01:58:44.439Z,8.87
2023-05-02T02:08:44.661Z,8.87
2023-05-02T02:18:44.851Z,8.73
2023-05-02T02:28:45.101Z,8.63
2023-05-02T02:38:45.502Z,8.62
2023-05-02T02:48:45.508Z,8.55
2023-05-02T02:58:45.582Z,8.32
2023-05-02T03:08:46.070Z,8.11
2023-05-02T03:18:46.000Z,8.12
2023-05-02T03:28:46.208Z,7.74
2023-05-02T03:38:46.397Z,7.62
2023-05-02T03:48:46.862Z,7.55
2023-05-02T03:58:46.710Z,7.75
2023-05-02T04:08:46.934Z,8.04
2023-05-02T04:18:47.109Z,8.58
2023-05-02T04:28:47.364Z,8.79
2023-05-02T04:38:47.427Z,8.90
2023-05-02T04:48:47.666Z,9.15
2023-05-02T04:58:47.854Z,9.39
2023-05-02T05:08:47.967Z,9.71
2023-05-02T05:18:48.142Z,10.06
2023-05-02T05:28:48.497Z,10.43
2023-05-02T05:38:48.417Z,10.52
2023-05-02T05:48:48.629Z,10.73
2023-05-02T05:58:48.918Z,11.17
2023-05-02T06:08:48.884Z,11.65
2023-05-02T06:18:50.083Z,11.62
2023-05-02T06:28:49.475Z,11.47
2023-05-02T06:38:49.733Z,11.43
2023-05-02T06:48:49.716Z,11.44
2023-05-02T06:58:49.773Z,11.78
2023-05-02T07:08:49.967Z,11.93
2023-05-02T07:18:50.152Z,12.06
2023-05-02T07:28:50.528Z,12.21
2023-05-02T07:38:50.455Z,12.82
2023-05-02T07:48:50.781Z,12.57
2023-05-02T07:58:51.024Z,12.84
2023-05-02T08:08:50.913Z,12.84
2023-05-02T08:18:51.281Z,12.49
2023-05-02T08:28:51.280Z,13.22
2023-05-02T08:38:51.520Z,13.17
2023-05-02T08:48:51.825Z,13.29
2023-05-02T08:58:51.770Z,14.39
2023-05-02T09:08:52.077Z,13.29
2023-05-02T09:18:52.122Z,13.18
2023-05-02T09:28:52.690Z,13.98
2023-05-02T09:38:52.574Z,14.13
2023-05-02T09:48:52.737Z,14.90
2023-05-02T09:58:52.820Z,15.70
2023-05-02T10:08:52.927Z,15.15
2023-05-02T10:18:53.106Z,15.92
2023-05-02T10:28:53.384Z,16.86
2023-05-02T10:38:53.442Z,19.18
2023-05-02T10:48:53.943Z,16.16
2023-05-02T10:58:53.765Z,15.85
2023-05-02T11:08:54.486Z,20.21
2023-05-02T11:18:54.124Z,19.14
2023-05-02T11:28:54.439Z,18.59
2023-05-02T11:38:54.529Z,16.95
2023-05-02T11:48:54.732Z,18.91
2023-05-02T11:58:54.940Z,19.93
2023-05-02T12:08:55.162Z,19.72
2023-05-02T12:18:55.327Z,18.72
2023-05-02T12:28:55.804Z,17.50
2023-05-02T12:38:55.642Z,19.87
2023-05-02T12:48:56.043Z,20.25
2023-05-02T12:58:55.962Z,18.52
2023-05-02T13:08:56.167Z,17.35
2023-05-02T13:18:56.370Z,16.85
2023-05-02T13:28:56.484Z,17.04
2023-05-02T13:38:56.675Z,17.92
2023-05-02T13:48:57.187Z,18.50
2023-05-02T13:58:57.015Z,17.08
2023-05-02T14:08:57.229Z,19.18
2023-05-02T14:18:57.596Z,17.30
2023-05-02T14:28:57.596Z,19.63
2023-05-02T14:38:57.779Z,19.57
2023-05-02T14:48:58.148Z,19.47
2023-05-02T14:58:58.454Z,18.10
2023-05-02T15:08:58.418Z,19.61
2023-05-02T15:18:58.671Z,19.76
2023-05-02T15:28:58.726Z,18.74
2023-05-02T15:38:58.907Z,18.25
2023-05-02T15:48:59.019Z,17.00
2023-05-02T15:58:59.449Z,18.10
2023-05-02T16:09:00.501Z,16.77
2023-05-02T16:18:59.718Z,16.40
2023-05-02T16:28:59.699Z,16.25
2023-05-02T16:38:59.757Z,17.28
2023-05-02T16:49:01.187Z,19.83
2023-05-02T16:59:00.217Z,20.09
2023-05-02T17:09:00.524Z,20.59
2023-05-02T17:19:00.456Z,20.71
2023-05-02T17:29:00.803Z,19.76
2023-05-02T17:39:00.864Z,19.91
2023-05-02T17:49:01.246Z,19.61
2023-05-02T17:59:01.250Z,17.03
2023-05-02T18:09:01.351Z,15.94
2023-05-02T18:19:01.861Z,15.46
2023-05-02T18:29:01.717Z,14.54
2023-05-02T18:39:02.058Z,13.67
2023-05-02T18:49:02.036Z,13.09
2023-05-02T18:59:02.312Z,12.67
2023-05-02T19:09:02.413Z,12.49
2023-05-02T19:19:02.587Z,12.31
2023-05-02T19:29:02.817Z,12.04
2023-05-02T19:39:03.008Z,12.04
2023-05-02T19:49:03.423Z,11.83
2023-05-02T19:59:03.399Z,11.86
2023-05-02T20:09:03.497Z,12.06
2023-05-02T20:19:03.920Z,12.09
2023-05-02T20:29:03.914Z,12.05
2023-05-02T20:39:04.164Z,11.71
2023-05-02T20:49:04.496Z,11.41
2023-05-02T20:59:04.449Z,10.92
2023-05-02T21:09:04.733Z,10.55
2023-05-02T21:19:04.921Z,10.09
2023-05-02T21:29:05.040Z,9.81
2023-05-02T21:39:05.228Z,9.78
2023-05-02T21:49:05.356Z,9.56
2023-05-02T21:59:05.784Z,9.45
2023-05-02T22:09:05.778Z,9.28
2023-05-02T22:19:09.150Z,9.23
2023-05-02T22:29:06.054Z,9.06
2023-05-02T22:39:06.234Z,8.78
2023-05-02T22:49:06.596Z,8.69
2023-05-02T22:59:06.572Z,8.60
2023-05-02T23:09:06.830Z,8.40
2023-05-02T23:19:06.797Z,8.42
2023-05-02T23:29:07.227Z,8.57
2023-05-02T23:39:07.184Z,8.36
2023-05-02T23:49:07.322Z,7.92
2023-05-02T23:59:07.594Z,7.67
